Terminal Aerodrome Forecast
Issued by NWS

Current Version | Previous Version | Graphics & Text | Print | Product List | Glossary On
Versions: 1 2 3 4 5 6 7 8 9 10 11 12 13 14 15 16 17 18 19 20 21 22 23 24 25 26 27
000
FTUS41 KRLX 020100 AAA
TAFCKB
TAF AMD
KCKB 020134Z 0202/0224 07002KT 6SM BR SCT200
     FM020600 00000KT 4SM BR SCT200
     FM020800 00000KT 2SM BR BKN002
     FM021300 00000KT 5SM BR SCT200
     FM021400 VRB02KT P6SM SCT250=

USA.gov is the U.S. government's official web portal to all federal, state and local government web resources and services.